Time,TemperatureF,DewpointF,PressureIn,WindDirection,WindDirectionDegrees,WindSpeedMPH,WindSpeedGustMPH,Humidity,HourlyPrecipIn,Conditions,Clouds,dailyrainin,SolarRadiationWatts/m^2,SoftwareType,DateUTC
2013-06-18 00:22:00,86.0,35.0,-100.00,WSW,252,17.0,25.0,16,0.00,,,0.00,710.000000,,2013-06-18 00:22:00,
2013-06-18 00:32:00,86.0,35.0,-100.00,WSW,252,17.0,25.0,16,0.00,,,0.00,710.000000,,2013-06-18 00:32:00,
2013-06-18 00:43:00,86.0,35.0,-100.00,WSW,252,17.0,25.0,16,0.00,,,0.00,710.000000,,2013-06-18 00:43:00,
2013-06-18 00:50:00,84.0,34.0,-100.00,WSW,250,13.0,26.0,17,0.00,,,0.00,496.000000,,2013-06-18 00:50:00,
2013-06-18 01:23:00,84.0,34.0,-100.00,WSW,250,13.0,26.0,17,0.00,,,0.00,496.000000,,2013-06-18 01:23:00,
2013-06-18 01:34:00,84.0,34.0,-100.00,WSW,250,13.0,26.0,17,0.00,,,0.00,496.000000,,2013-06-18 01:34:00,
2013-06-18 01:44:00,84.0,34.0,-100.00,WSW,250,13.0,26.0,17,0.00,,,0.00,496.000000,,2013-06-18 01:44:00,
2013-06-18 01:50:00,80.0,37.0,-100.00,WSW,247,14.0,22.0,21,0.00,,,0.00,281.000000,,2013-06-18 01:50:00,
2013-06-18 02:22:00,80.0,37.0,-100.00,WSW,247,14.0,22.0,21,0.00,,,0.00,281.000000,,2013-06-18 02:22:00,
2013-06-18 02:34:00,80.0,37.0,-100.00,WSW,247,14.0,22.0,21,0.00,,,0.00,281.000000,,2013-06-18 02:34:00,
2013-06-18 02:43:00,80.0,37.0,-100.00,WSW,247,14.0,22.0,21,0.00,,,0.00,281.000000,,2013-06-18 02:43:00,
2013-06-18 02:50:00,74.0,39.0,-100.00,South,187,4.0,19.0,28,0.00,,,0.00,87.000000,,2013-06-18 02:50:00,
2013-06-18 03:23:00,74.0,39.0,-100.00,South,187,4.0,19.0,28,0.00,,,0.00,87.000000,,2013-06-18 03:23:00,
2013-06-18 03:34:00,74.0,39.0,-100.00,South,187,4.0,19.0,28,0.00,,,0.00,87.000000,,2013-06-18 03:34:00,
2013-06-18 03:42:00,74.0,39.0,-100.00,South,187,4.0,19.0,28,0.00,,,0.00,87.000000,,2013-06-18 03:42:00,
2013-06-18 03:50:00,68.0,42.0,-100.00,SSE,162,5.0,9.0,39,0.00,,,0.00,2.000000,,2013-06-18 03:50:00,
2013-06-18 04:12:00,68.0,42.0,-100.00,SSE,162,5.0,9.0,39,0.00,,,0.00,2.000000,,2013-06-18 04:12:00,
2013-06-18 04:22:00,68.0,42.0,-100.00,SSE,162,5.0,9.0,39,0.00,,,0.00,2.000000,,2013-06-18 04:22:00,
2013-06-18 04:34:00,68.0,42.0,-100.00,SSE,162,5.0,9.0,39,0.00,,,0.00,2.000000,,2013-06-18 04:34:00,
2013-06-18 04:43:00,68.0,42.0,-100.00,SSE,162,5.0,9.0,39,0.00,,,0.00,2.000000,,2013-06-18 04:43:00,
2013-06-18 04:50:00,63.0,43.0,-100.00,East,97,2.0,12.0,48,0.00,,,0.00,0.000000,,2013-06-18 04:50:00,
2013-06-18 05:22:00,63.0,43.0,-100.00,East,97,2.0,12.0,48,0.00,,,0.00,0.000000,,2013-06-18 05:22:00,
2013-06-18 05:33:00,63.0,43.0,-100.00,East,97,2.0,12.0,48,0.00,,,0.00,0.000000,,2013-06-18 05:33:00,
2013-06-18 05:43:00,63.0,43.0,-100.00,East,97,2.0,12.0,48,0.00,,,0.00,0.000000,,2013-06-18 05:43:00,
2013-06-18 05:50:00,66.0,45.0,-100.00,WSW,246,7.0,11.0,46,0.00,,,0.00,0.000000,,2013-06-18 05:50:00,
2013-06-18 06:23:00,66.0,45.0,-100.00,WSW,246,7.0,11.0,46,0.00,,,0.00,0.000000,,2013-06-18 06:23:00,
2013-06-18 06:32:00,66.0,45.0,-100.00,WSW,246,7.0,11.0,46,0.00,,,0.00,0.000000,,2013-06-18 06:32:00,
2013-06-18 06:43:00,66.0,45.0,-100.00,WSW,246,7.0,11.0,46,0.00,,,0.00,0.000000,,2013-06-18 06:43:00,
2013-06-18 06:50:00,61.0,42.0,-100.00,SW,223,2.0,11.0,49,0.00,,,0.00,0.000000,,2013-06-18 06:50:00,
2013-06-18 07:12:00,61.0,42.0,-100.00,SW,223,2.0,11.0,49,0.00,,,0.00,0.000000,,2013-06-18 07:12:00,
2013-06-18 07:22:00,61.0,42.0,-100.00,SW,223,2.0,11.0,49,0.00,,,0.00,0.000000,,2013-06-18 07:22:00,
2013-06-18 07:33:00,61.0,42.0,-100.00,SW,223,2.0,11.0,49,0.00,,,0.00,0.000000,,2013-06-18 07:33:00,
2013-06-18 07:43:00,61.0,42.0,-100.00,SW,223,2.0,11.0,49,0.00,,,0.00,0.000000,,2013-06-18 07:43:00,
2013-06-18 07:50:00,60.0,42.0,-100.00,West,262,4.0,7.0,52,0.00,,,-99.99,0.000000,,2013-06-18 07:50:00,
2013-06-18 08:23:00,60.0,42.0,-100.00,West,262,4.0,7.0,52,0.00,,,-99.99,0.000000,,2013-06-18 08:23:00,
2013-06-18 08:32:00,60.0,42.0,-100.00,West,262,4.0,7.0,52,0.00,,,-99.99,0.000000,,2013-06-18 08:32:00,
2013-06-18 08:43:00,60.0,42.0,-100.00,West,262,4.0,7.0,52,0.00,,,-99.99,0.000000,,2013-06-18 08:43:00,
2013-06-18 08:50:00,61.0,40.0,-100.00,West,261,3.0,9.0,46,0.00,,,0.00,0.000000,,2013-06-18 08:50:00,
2013-06-18 09:12:00,61.0,40.0,-100.00,West,261,3.0,9.0,46,0.00,,,0.00,0.000000,,2013-06-18 09:12:00,
2013-06-18 09:22:00,61.0,40.0,-100.00,West,261,3.0,9.0,46,0.00,,,0.00,0.000000,,2013-06-18 09:22:00,
2013-06-18 09:34:00,61.0,40.0,-100.00,West,261,3.0,9.0,46,0.00,,,0.00,0.000000,,2013-06-18 09:34:00,
2013-06-18 09:42:00,61.0,40.0,-100.00,West,261,3.0,9.0,46,0.00,,,0.00,0.000000,,2013-06-18 09:42:00,
2013-06-18 09:50:00,54.0,37.0,-100.00,WNW,294,2.0,6.0,53,0.00,,,0.00,0.000000,,2013-06-18 09:50:00,
2013-06-18 10:22:00,54.0,37.0,-100.00,WNW,294,2.0,6.0,53,0.00,,,0.00,0.000000,,2013-06-18 10:22:00,
2013-06-18 10:33:00,54.0,37.0,-100.00,WNW,294,2.0,6.0,53,0.00,,,0.00,0.000000,,2013-06-18 10:33:00,
2013-06-18 10:43:00,54.0,37.0,-100.00,WNW,294,2.0,6.0,53,0.00,,,0.00,0.000000,,2013-06-18 10:43:00,
2013-06-18 10:50:00,55.0,34.0,-100.00,SE,131,4.0,9.0,45,0.00,,,0.00,0.000000,,2013-06-18 10:50:00,
2013-06-18 11:22:00,55.0,34.0,-100.00,SE,131,4.0,9.0,45,0.00,,,0.00,0.000000,,2013-06-18 11:22:00,
2013-06-18 11:32:00,55.0,34.0,-100.00,SE,131,4.0,9.0,45,0.00,,,0.00,0.000000,,2013-06-18 11:32:00,
2013-06-18 11:42:00,55.0,34.0,-100.00,SE,131,4.0,9.0,45,0.00,,,0.00,0.000000,,2013-06-18 11:42:00,
2013-06-18 11:50:00,57.0,30.0,-100.00,ENE,58,5.0,9.0,35,0.00,,,0.00,0.000000,,2013-06-18 11:50:00,
2013-06-18 12:22:00,57.0,30.0,-100.00,ENE,58,5.0,9.0,35,0.00,,,0.00,0.000000,,2013-06-18 12:22:00,
2013-06-18 12:32:00,57.0,30.0,-100.00,ENE,58,5.0,9.0,35,0.00,,,0.00,0.000000,,2013-06-18 12:32:00,
2013-06-18 12:42:00,57.0,30.0,-100.00,ENE,58,5.0,9.0,35,0.00,,,0.00,0.000000,,2013-06-18 12:42:00,
2013-06-18 12:50:00,58.0,27.0,-100.00,NNE,13,4.0,16.0,30,0.00,,,0.00,2.000000,,2013-06-18 12:50:00,
2013-06-18 13:12:00,58.0,27.0,-100.00,NNE,13,4.0,16.0,30,0.00,,,0.00,2.000000,,2013-06-18 13:12:00,
2013-06-18 13:22:00,58.0,27.0,-100.00,NNE,13,4.0,16.0,30,0.00,,,0.00,2.000000,,2013-06-18 13:22:00,
2013-06-18 13:33:00,58.0,27.0,-100.00,NNE,13,4.0,16.0,30,0.00,,,0.00,2.000000,,2013-06-18 13:33:00,
2013-06-18 13:43:00,58.0,27.0,-100.00,NNE,13,4.0,16.0,30,0.00,,,0.00,2.000000,,2013-06-18 13:43:00,
2013-06-18 13:50:00,66.0,31.0,-100.00,SW,236,3.0,5.0,27,0.00,,,0.00,105.000000,,2013-06-18 13:50:00,
2013-06-18 14:11:00,66.0,31.0,-100.00,SW,236,3.0,5.0,27,0.00,,,0.00,105.000000,,2013-06-18 14:11:00,
2013-06-18 14:22:00,66.0,31.0,-100.00,SW,236,3.0,5.0,27,0.00,,,0.00,105.000000,,2013-06-18 14:22:00,
2013-06-18 14:33:00,66.0,31.0,-100.00,SW,236,3.0,5.0,27,0.00,,,0.00,105.000000,,2013-06-18 14:33:00,
2013-06-18 14:43:00,66.0,31.0,-100.00,SW,236,3.0,5.0,27,0.00,,,0.00,105.000000,,2013-06-18 14:43:00,
2013-06-18 14:50:00,75.0,34.0,-100.00,SSW,211,5.0,12.0,22,0.00,,,0.00,308.000000,,2013-06-18 14:50:00,
2013-06-18 15:33:00,75.0,34.0,-100.00,SSW,211,5.0,12.0,22,0.00,,,0.00,308.000000,,2013-06-18 15:33:00,
2013-06-18 15:43:00,75.0,34.0,-100.00,SSW,211,5.0,12.0,22,0.00,,,0.00,308.000000,,2013-06-18 15:43:00,
2013-06-18 15:50:00,78.0,30.0,-100.00,WSW,241,9.0,17.0,17,0.00,,,0.00,525.000000,,2013-06-18 15:50:00,
2013-06-18 16:22:00,78.0,30.0,-100.00,WSW,241,9.0,17.0,17,0.00,,,0.00,525.000000,,2013-06-18 16:22:00,
2013-06-18 16:33:00,78.0,30.0,-100.00,WSW,241,9.0,17.0,17,0.00,,,0.00,525.000000,,2013-06-18 16:33:00,
2013-06-18 16:43:00,78.0,30.0,-100.00,WSW,241,9.0,17.0,17,0.00,,,0.00,525.000000,,2013-06-18 16:43:00,
2013-06-18 16:50:00,81.0,29.0,-100.00,WSW,244,15.0,23.0,15,0.00,,,0.00,730.000000,,2013-06-18 16:50:00,
2013-06-18 17:11:00,81.0,29.0,-100.00,WSW,244,15.0,23.0,15,0.00,,,0.00,730.000000,,2013-06-18 17:11:00,
2013-06-18 17:22:00,81.0,29.0,-100.00,WSW,244,15.0,23.0,15,0.00,,,0.00,730.000000,,2013-06-18 17:22:00,
2013-06-18 17:33:00,81.0,29.0,-100.00,WSW,244,15.0,23.0,15,0.00,,,0.00,730.000000,,2013-06-18 17:33:00,
2013-06-18 17:43:00,81.0,29.0,-100.00,WSW,244,15.0,23.0,15,0.00,,,0.00,730.000000,,2013-06-18 17:43:00,
2013-06-18 17:50:00,83.0,31.0,-100.00,SW,228,10.0,21.0,15,0.00,,,0.00,892.000000,,2013-06-18 17:50:00,
2013-06-18 18:11:00,83.0,31.0,-100.00,SW,228,10.0,21.0,15,0.00,,,0.00,892.000000,,2013-06-18 18:11:00,
2013-06-18 18:22:00,83.0,31.0,-100.00,SW,228,10.0,21.0,15,0.00,,,0.00,892.000000,,2013-06-18 18:22:00,
2013-06-18 18:33:00,83.0,31.0,-100.00,SW,228,10.0,21.0,15,0.00,,,0.00,892.000000,,2013-06-18 18:33:00,
2013-06-18 18:42:00,83.0,31.0,-100.00,SW,228,10.0,21.0,15,0.00,,,0.00,892.000000,,2013-06-18 18:42:00,
2013-06-18 18:50:00,86.0,31.0,-100.00,WSW,255,12.0,21.0,14,0.00,,,0.00,1000.000000,,2013-06-18 18:50:00,
2013-06-18 19:22:00,86.0,31.0,-100.00,WSW,255,12.0,21.0,14,0.00,,,0.00,1000.000000,,2013-06-18 19:22:00,
2013-06-18 19:33:00,86.0,31.0,-100.00,WSW,255,12.0,21.0,14,0.00,,,0.00,1000.000000,,2013-06-18 19:33:00,
2013-06-18 19:43:00,86.0,31.0,-100.00,WSW,255,12.0,21.0,14,0.00,,,0.00,1000.000000,,2013-06-18 19:43:00,
2013-06-18 19:50:00,86.0,33.0,-100.00,WSW,250,17.0,29.0,15,0.00,,,0.00,1054.000000,,2013-06-18 19:50:00,
2013-06-18 20:23:00,86.0,33.0,-100.00,WSW,250,17.0,29.0,15,0.00,,,0.00,1054.000000,,2013-06-18 20:23:00,
2013-06-18 20:33:00,86.0,33.0,-100.00,WSW,250,17.0,29.0,15,0.00,,,0.00,1054.000000,,2013-06-18 20:33:00,
2013-06-18 20:43:00,86.0,33.0,-100.00,WSW,250,17.0,29.0,15,0.00,,,0.00,1054.000000,,2013-06-18 20:43:00,
2013-06-18 20:50:00,87.0,35.0,-100.00,WSW,248,15.0,28.0,16,0.00,,,-99.99,1046.000000,,2013-06-18 20:50:00,
2013-06-18 21:11:00,87.0,35.0,-100.00,WSW,248,15.0,28.0,16,0.00,,,-99.99,1046.000000,,2013-06-18 21:11:00,
2013-06-18 21:22:00,87.0,35.0,-100.00,WSW,248,15.0,28.0,16,0.00,,,-99.99,1046.000000,,2013-06-18 21:22:00,
2013-06-18 21:33:00,87.0,35.0,-100.00,WSW,248,15.0,28.0,16,0.00,,,-99.99,1046.000000,,2013-06-18 21:33:00,
2013-06-18 21:43:00,87.0,35.0,-100.00,WSW,248,15.0,28.0,16,0.00,,,-99.99,1046.000000,,2013-06-18 21:43:00,
2013-06-18 21:50:00,87.0,40.0,-100.00,WSW,258,16.0,26.0,19,0.00,,,0.00,984.000000,,2013-06-18 21:50:00,
2013-06-18 22:22:00,87.0,40.0,-100.00,WSW,258,16.0,26.0,19,0.00,,,0.00,984.000000,,2013-06-18 22:22:00,
2013-06-18 22:34:00,87.0,40.0,-100.00,WSW,258,16.0,26.0,19,0.00,,,0.00,984.000000,,2013-06-18 22:34:00,
2013-06-18 22:42:00,87.0,40.0,-100.00,WSW,258,16.0,26.0,19,0.00,,,0.00,984.000000,,2013-06-18 22:42:00,
2013-06-18 22:50:00,86.0,36.0,-100.00,WSW,258,16.0,29.0,17,0.00,,,0.00,872.000000,,2013-06-18 22:50:00,
2013-06-18 23:11:00,86.0,36.0,-100.00,WSW,258,16.0,29.0,17,0.00,,,0.00,872.000000,,2013-06-18 23:11:00,
2013-06-18 23:23:00,86.0,36.0,-100.00,WSW,258,16.0,29.0,17,0.00,,,0.00,872.000000,,2013-06-18 23:23:00,
2013-06-18 23:35:00,86.0,36.0,-100.00,WSW,258,16.0,29.0,17,0.00,,,0.00,872.000000,,2013-06-18 23:35:00,
2013-06-18 23:44:00,86.0,36.0,-100.00,WSW,258,16.0,29.0,17,0.00,,,0.00,872.000000,,2013-06-18 23:44:00,
2013-06-18 23:50:00,84.0,36.0,-100.00,WSW,254,15.0,27.0,18,0.00,,,0.00,709.000000,,2013-06-18 23:50:00,